Time;durP1;ratioP1;P1;durP2;ratioP2;P2;SDS_P1;SDS_P2;PMS_P1;PMS_P2;Temp;Humidity;BMP_temperature;BMP_pressure;BME280_temperature;BME280_humidity;BME280_pressure;Samples;Min_cycle;Max_cycle;Signal;HPM_P1;HPM_P2
2022/04/01 00:00:59;;;;;;;1.60;1.10;;;14.10;46.80;;;;;;3915613;30;20080;-63
2022/04/01 00:03:23;;;;;;;1.73;1.00;;;14.10;46.00;;;;;;3927121;30;20056;-63
2022/04/01 00:05:45;;;;;;;1.40;0.90;;;14.20;46.50;;;;;;3927092;30;20074;-65
2022/04/01 00:08:09;;;;;;;2.25;1.25;;;14.20;45.40;;;;;;3927215;30;20081;-65
2022/04/01 00:10:32;;;;;;;1.95;1.15;;;14.20;45.30;;;;;;3912081;30;20486;-64
2022/04/01 00:12:54;;;;;;;1.65;1.27;;;14.30;45.60;;;;;;3912235;30;20060;-65
2022/04/01 00:15:17;;;;;;;1.38;0.90;;;14.30;45.40;;;;;;3911800;30;20060;-64
2022/04/01 00:17:40;;;;;;;3.10;1.20;;;14.30;44.50;;;;;;3921605;30;20501;-65
2022/04/01 00:20:04;;;;;;;1.17;0.77;;;14.20;44.10;;;;;;3926901;30;20463;-65
2022/04/01 00:22:26;;;;;;;2.97;1.52;;;14.10;45.20;;;;;;3926762;30;20056;-65
2022/04/01 00:24:48;;;;;;;2.00;1.00;;;14.00;45.10;;;;;;3912804;30;20064;-64
2022/04/01 00:27:10;;;;;;;3.65;1.15;;;14.00;45.40;;;;;;3926515;30;20866;-64
2022/04/01 00:29:32;;;;;;;1.52;1.42;;;14.00;45.90;;;;;;3925839;30;20068;-65
2022/04/01 00:32:00;;;;;;;2.38;1.42;;;14.00;44.80;;;;;;3912754;30;20437;-64
2022/04/01 00:34:22;;;;;;;2.70;1.50;;;14.10;45.30;;;;;;3925831;30;20461;-65
2022/04/01 00:36:48;;;;;;;2.72;1.00;;;14.10;45.30;;;;;;3926813;30;20058;-64
2022/04/01 00:39:11;;;;;;;1.20;1.20;;;14.20;45.50;;;;;;3926929;30;20060;-65
2022/04/01 00:41:33;;;;;;;1.40;0.90;;;14.20;44.40;;;;;;3926143;30;20099;-65
2022/04/01 00:44:14;;;;;;;2.05;1.52;;;14.30;44.90;;;;;;3926232;30;20056;-64
2022/04/01 00:46:40;;;;;;;1.33;1.00;;;14.40;45.20;;;;;;3911307;30;20059;-64
2022/04/01 00:49:03;;;;;;;1.40;1.20;;;14.40;44.60;;;;;;3911517;30;20478;-63
2022/04/01 00:51:25;;;;;;;1.75;1.17;;;14.50;45.40;;;;;;3917480;30;20092;-64
2022/04/01 00:53:48;;;;;;;1.58;1.00;;;14.50;45.80;;;;;;3926043;30;20469;-65
2022/04/01 00:56:10;;;;;;;3.40;1.27;;;14.50;45.20;;;;;;3913075;30;20052;-64
2022/04/01 00:58:34;;;;;;;1.80;1.30;;;14.40;44.70;;;;;;3926675;30;20101;-65
2022/04/01 01:00:57;;;;;;;2.50;1.10;;;14.40;44.70;;;;;;3926253;30;20136;-64
2022/04/01 01:03:20;;;;;;;1.52;1.20;;;14.40;45.60;;;;;;3912611;30;20068;-65
2022/04/01 01:05:43;;;;;;;2.38;1.08;;;14.40;45.70;;;;;;3898623;30;20045;-65
2022/04/01 01:08:07;;;;;;;2.10;1.17;;;14.50;45.80;;;;;;3911314;30;20474;-62
2022/04/01 01:10:31;;;;;;;2.03;1.00;;;14.50;45.30;;;;;;3910920;30;20101;-62
2022/04/01 01:12:54;;;;;;;1.70;1.20;;;14.50;46.50;;;;;;3913400;30;20067;-62
2022/04/01 01:15:18;;;;;;;1.25;1.00;;;14.50;45.30;;;;;;3926748;30;20056;-62
2022/04/01 01:17:41;;;;;;;1.88;1.27;;;14.50;43.90;;;;;;3926799;30;20060;-62
2022/04/01 01:20:12;;;;;;;1.58;1.00;;;14.50;44.10;;;;;;3926246;30;20072;-61
2022/04/01 01:22:35;;;;;;;1.10;1.00;;;14.40;45.20;;;;;;3926726;30;20173;-64
2022/04/01 01:24:58;;;;;;;1.27;1.10;;;14.40;45.20;;;;;;3926745;30;20513;-65
2022/04/01 01:27:21;;;;;;;1.92;1.02;;;14.40;45.90;;;;;;3926967;30;20414;-65
2022/04/01 01:29:45;;;;;;;1.83;1.02;;;14.50;46.70;;;;;;3926934;30;20467;-65
2022/04/01 01:32:10;;;;;;;2.70;1.23;;;14.50;47.50;;;;;;3929012;30;20060;-63
2022/04/01 01:34:33;;;;;;;1.80;1.05;;;14.60;45.70;;;;;;3929106;30;20425;-63
2022/04/01 01:36:56;;;;;;;1.77;1.10;;;14.70;45.90;;;;;;3929219;30;20060;-62
2022/04/01 01:39:20;;;;;;;1.67;1.40;;;14.70;46.00;;;;;;3915704;30;20085;-62
2022/04/01 01:41:45;;;;;;;1.75;1.10;;;14.70;45.60;;;;;;3914616;30;20101;-63
2022/04/01 01:44:07;;;;;;;2.78;0.98;;;14.70;45.30;;;;;;3915478;30;20059;-62
2022/04/01 01:46:29;;;;;;;1.77;0.95;;;14.60;45.10;;;;;;3929153;30;20466;-63
2022/04/01 01:48:51;;;;;;;2.47;1.23;;;14.50;45.30;;;;;;3915813;30;20080;-62
2022/04/01 01:56:34;;;;;;;1.77;1.20;;;14.30;45.30;;;;;;3914874;30;20066;-61
2022/04/01 01:58:59;;;;;;;2.38;0.98;;;14.30;45.30;;;;;;3914060;30;20540;-63
2022/04/01 02:01:21;;;;;;;2.35;1.33;;;14.30;46.20;;;;;;3920334;30;20068;-62
2022/04/01 02:03:44;;;;;;;2.17;1.23;;;14.30;46.70;;;;;;3928583;30;20489;-64
2022/04/01 02:06:06;;;;;;;3.17;1.27;;;14.30;46.00;;;;;;3928198;30;20052;-64
2022/04/01 02:08:28;;;;;;;2.13;1.50;;;14.30;45.50;;;;;;3928646;30;20153;-63
2022/04/01 02:10:51;;;;;;;2.55;1.27;;;14.20;44.90;;;;;;3914970;30;20511;-63
2022/04/01 02:13:14;;;;;;;1.45;1.08;;;14.20;45.70;;;;;;3928608;30;20501;-62
2022/04/01 02:15:39;;;;;;;2.53;1.40;;;14.20;46.10;;;;;;3915527;30;20056;-63
2022/04/01 02:18:02;;;;;;;1.88;0.88;;;14.20;46.80;;;;;;3928421;30;20063;-63
2022/04/01 02:20:24;;;;;;;1.00;0.93;;;14.20;46.50;;;;;;3928202;30;20058;-63
2022/04/01 02:22:46;;;;;;;1.60;1.10;;;14.20;46.30;;;;;;3915146;30;20094;-63
2022/04/01 02:25:11;;;;;;;1.73;1.00;;;14.20;46.30;;;;;;3914605;30;20069;-63
2022/04/01 02:27:34;;;;;;;2.53;1.30;;;14.20;47.10;;;;;;3915041;30;20097;-63
2022/04/01 02:29:56;;;;;;;1.17;0.80;;;14.20;46.90;;;;;;3928303;30;20079;-63
2022/04/01 02:32:39;;;;;;;3.10;1.20;;;14.20;47.20;;;;;;3927205;30;20524;-63
2022/04/01 02:35:28;;;;;;;3.05;1.33;;;14.20;47.80;;;;;;3928556;30;20105;-63
2022/04/01 02:37:50;;;;;;;3.17;1.00;;;14.10;47.60;;;;;;3914897;30;20055;-63
2022/04/01 02:40:12;;;;;;;3.45;0.90;;;14.10;47.40;;;;;;3926981;30;20044;-62
2022/04/01 02:42:36;;;;;;;3.55;1.00;;;14.10;47.00;;;;;;3927040;30;20596;-63
2022/04/01 02:44:58;;;;;;;1.17;1.15;;;14.20;47.20;;;;;;3915282;30;20053;-63
2022/04/01 02:47:21;;;;;;;3.38;1.00;;;14.20;47.00;;;;;;3927276;30;20056;-63
2022/04/01 02:49:45;;;;;;;2.53;1.02;;;14.30;47.20;;;;;;3912825;30;20118;-63
2022/04/01 02:52:07;;;;;;;2.30;1.23;;;14.30;45.90;;;;;;3914346;30;20053;-63
2022/04/01 02:54:34;;;;;;;1.33;1.13;;;14.40;45.90;;;;;;3912187;30;20429;-63
2022/04/01 02:56:59;;;;;;;2.55;0.95;;;14.40;45.90;;;;;;3924426;30;20059;-63
2022/04/01 02:59:21;;;;;;;3.92;1.27;;;14.50;45.50;;;;;;3925151;30;20047;-62
2022/04/01 03:01:43;;;;;;;1.80;0.80;;;14.50;46.70;;;;;;3914304;30;20061;-64
2022/04/01 03:04:09;;;;;;;3.25;1.00;;;14.60;45.80;;;;;;3927294;30;20048;-63
2022/04/01 03:06:40;;;;;;;3.03;1.08;;;14.70;45.60;;;;;;3914062;30;20056;-63
2022/04/01 03:09:02;;;;;;;1.20;1.02;;;14.70;45.90;;;;;;3914524;30;20052;-63
2022/04/01 03:11:24;;;;;;;1.92;1.05;;;14.80;46.30;;;;;;3914770;30;20067;-63
2022/04/01 03:13:47;;;;;;;1.90;1.20;;;14.70;45.30;;;;;;3914441;30;20051;-63
2022/04/01 03:16:36;;;;;;;1.45;0.85;;;14.70;44.50;;;;;;3913808;30;20060;-63
2022/04/01 03:18:59;;;;;;;5.07;1.40;;;14.60;45.60;;;;;;3896867;30;20450;-62
2022/04/01 03:21:23;;;;;;;3.85;1.23;;;14.50;44.90;;;;;;3896589;30;20119;-63
2022/04/01 03:23:47;;;;;;;2.03;1.02;;;14.50;45.30;;;;;;3884693;30;20172;-63
2022/04/01 03:26:12;;;;;;;2.33;1.02;;;14.30;44.80;;;;;;3884793;30;20172;-63
2022/04/01 03:28:48;;;;;;;1.45;0.98;;;14.30;45.40;;;;;;3884409;30;20200;-62
2022/04/01 03:31:11;;;;;;;3.40;1.10;;;14.30;45.70;;;;;;3896468;30;20075;-63
2022/04/01 03:33:34;;;;;;;2.90;1.00;;;14.30;46.30;;;;;;3884560;30;20054;-63
2022/04/01 03:35:56;;;;;;;1.08;1.00;;;14.40;47.00;;;;;;3896693;30;20060;-64
2022/04/01 03:38:22;;;;;;;3.05;1.40;;;14.40;47.10;;;;;;3895669;30;20080;-62
2022/04/01 03:40:49;;;;;;;3.72;1.35;;;14.50;45.50;;;;;;3896230;30;20053;-63
2022/04/01 03:43:12;;;;;;;1.73;0.80;;;14.60;45.20;;;;;;3883990;30;20495;-63
2022/04/01 03:45:34;;;;;;;0.80;0.80;;;14.60;45.40;;;;;;3884312;30;20145;-63
2022/04/01 03:48:10;;;;;;;2.55;1.02;;;14.70;46.20;;;;;;3881448;30;20499;-63
2022/04/01 03:50:35;;;;;;;2.17;0.80;;;14.70;45.90;;;;;;3911554;30;20083;-63
2022/04/01 03:53:04;;;;;;;1.92;1.23;;;14.70;44.70;;;;;;3925666;30;20052;-63
2022/04/01 03:55:28;;;;;;;1.40;0.88;;;14.70;45.30;;;;;;3926776;30;20052;-64
2022/04/01 03:58:14;;;;;;;1.77;0.90;;;14.60;44.70;;;;;;3926373;30;20059;-62
2022/04/01 04:01:10;;;;;;;5.20;1.33;;;14.60;44.60;;;;;;3912055;30;20131;-61
2022/04/01 04:03:33;;;;;;;2.70;1.30;;;14.50;45.90;;;;;;3913563;30;20083;-62
2022/04/01 04:05:56;;;;;;;1.13;1.02;;;14.50;44.50;;;;;;3913834;30;20118;-61
2022/04/01 04:08:20;;;;;;;2.10;0.90;;;14.50;45.30;;;;;;3913743;30;20585;-61
2022/04/01 04:10:43;;;;;;;1.65;0.82;;;14.60;45.30;;;;;;3926655;30;20504;-62
2022/04/01 04:13:22;;;;;;;1.75;1.08;;;14.50;45.50;;;;;;3913560;30;20064;-61
2022/04/01 04:15:51;;;;;;;3.53;1.33;;;14.60;45.40;;;;;;3913578;30;20069;-61
2022/04/01 04:18:15;;;;;;;4.43;1.35;;;14.60;45.70;;;;;;3925097;30;20418;-61
2022/04/01 04:20:43;;;;;;;2.20;1.38;;;14.70;45.60;;;;;;3913094;30;20060;-61
2022/04/01 04:23:13;;;;;;;1.65;0.98;;;14.60;46.20;;;;;;3914036;30;20806;-61
2022/04/01 04:25:37;;;;;;;1.77;1.20;;;14.60;45.70;;;;;;3913349;30;20061;-61
2022/04/01 04:28:05;;;;;;;3.22;1.38;;;14.60;46.20;;;;;;3913086;30;20139;-62
2022/04/01 04:30:33;;;;;;;1.27;1.17;;;14.50;44.10;;;;;;3913012;30;20746;-61
2022/04/01 04:33:19;;;;;;;1.15;0.80;;;14.40;44.80;;;;;;3913070;30;20059;-62
2022/04/01 04:35:41;;;;;;;2.17;0.88;;;14.40;45.10;;;;;;3913414;30;20143;-62
2022/04/01 04:38:05;;;;;;;1.98;1.15;;;14.30;45.70;;;;;;3913094;30;20493;-61
2022/04/01 04:40:28;;;;;;;3.20;1.17;;;14.40;47.10;;;;;;3912881;30;20052;-62
2022/04/01 04:43:05;;;;;;;1.73;0.88;;;14.50;45.70;;;;;;3913534;30;20191;-62
2022/04/01 04:45:28;;;;;;;2.85;1.20;;;14.50;45.90;;;;;;3913547;30;20482;-62
2022/04/01 04:47:55;;;;;;;1.80;1.15;;;14.60;44.80;;;;;;3919914;30;20397;-63
2022/04/01 04:50:19;;;;;;;2.85;1.17;;;14.60;44.90;;;;;;3920942;30;20133;-62
2022/04/01 04:52:43;;;;;;;2.40;1.05;;;14.60;44.40;;;;;;3926127;30;20570;-63
2022/04/01 04:55:09;;;;;;;3.00;1.55;;;14.50;44.60;;;;;;3925950;30;20135;-62
2022/04/01 04:57:43;;;;;;;1.05;0.95;;;14.50;44.60;;;;;;3926344;30;20372;-62
2022/04/01 05:00:07;;;;;;;4.38;1.00;;;14.40;44.50;;;;;;3926021;30;20064;-62
2022/04/01 05:03:11;;;;;;;1.67;1.15;;;14.30;44.10;;;;;;3926230;30;20765;-62
2022/04/01 05:05:42;;;;;;;3.72;0.95;;;14.20;45.10;;;;;;3915464;30;20056;-62
2022/04/01 05:08:28;;;;;;;2.00;1.00;;;14.20;45.60;;;;;;3929463;30;20068;-62
2022/04/01 05:11:29;;;;;;;2.42;1.17;;;14.30;45.00;;;;;;3911905;30;20065;-62
2022/04/01 05:13:59;;;;;;;2.25;1.20;;;14.40;46.00;;;;;;3901693;30;20056;-61
2022/04/01 05:16:31;;;;;;;4.10;1.40;;;14.40;45.80;;;;;;3913298;30;20085;-62
2022/04/01 05:19:05;;;;;;;2.28;1.00;;;14.50;46.70;;;;;;3916000;30;20056;-63
2022/04/01 05:21:37;;;;;;;1.35;0.85;;;14.50;45.10;;;;;;3913768;30;20109;-63
2022/04/01 05:24:02;;;;;;;1.20;1.10;;;14.50;44.70;;;;;;3914485;30;20075;-63
2022/04/01 05:26:38;;;;;;;2.53;1.00;;;14.50;45.60;;;;;;3914114;30;20049;-64
2022/04/01 05:29:13;;;;;;;1.40;1.20;;;14.40;44.80;;;;;;3929049;30;20052;-63
2022/04/01 05:31:46;;;;;;;3.15;1.58;;;14.30;46.30;;;;;;3915625;30;20052;-63
2022/04/01 05:34:13;;;;;;;2.72;1.20;;;14.20;44.40;;;;;;3928697;30;20063;-63
2022/04/01 05:36:38;;;;;;;3.05;1.27;;;14.10;45.20;;;;;;3915416;30;20495;-63
2022/04/01 05:39:03;;;;;;;2.90;1.50;;;14.10;45.50;;;;;;3915850;30;20534;-61
2022/04/01 05:41:26;;;;;;;2.25;1.40;;;14.10;44.50;;;;;;3915948;30;20068;-63
2022/04/01 05:43:50;;;;;;;3.38;1.48;;;14.20;44.80;;;;;;3928779;30;20406;-64
2022/04/01 05:46:22;;;;;;;2.60;1.40;;;14.30;45.10;;;;;;3914584;30;20577;-63
2022/04/01 05:48:47;;;;;;;2.72;1.38;;;14.40;44.30;;;;;;3914966;30;20297;-63
2022/04/01 05:51:14;;;;;;;2.75;1.17;;;14.40;44.50;;;;;;3927043;30;20055;-62
2022/04/01 05:53:43;;;;;;;1.20;1.00;;;14.50;44.20;;;;;;3928888;30;20056;-62
2022/04/01 05:56:09;;;;;;;5.68;1.20;;;14.50;44.80;;;;;;3914676;30;20057;-63
2022/04/01 05:58:31;;;;;;;3.40;1.48;;;14.60;44.90;;;;;;3915529;30;20060;-63
2022/04/01 06:01:04;;;;;;;0.85;0.80;;;14.60;44.10;;;;;;3926602;30;20064;-63
2022/04/01 06:03:46;;;;;;;2.92;1.20;;;14.70;44.80;;;;;;3930081;30;20545;-64
2022/04/01 06:06:16;;;;;;;4.32;1.60;;;14.70;43.60;;;;;;3914354;30;20693;-64
2022/04/01 06:08:48;;;;;;;1.65;0.95;;;14.80;42.80;;;;;;3927551;30;20437;-63
2022/04/01 06:11:36;;;;;;;;;;;14.80;43.10;;;;;;3927890;30;20052;-64
2022/04/01 06:14:34;;;;;;;1.92;1.17;;;14.80;43.40;;;;;;3927844;30;19952;-63
2022/04/01 06:17:37;;;;;;;3.53;1.48;;;14.70;44.50;;;;;;3919933;30;20421;-64
2022/04/01 06:20:07;;;;;;;3.00;1.25;;;14.60;43.60;;;;;;3915369;30;20107;-64
2022/04/01 06:22:36;;;;;;;2.17;1.10;;;14.50;42.70;;;;;;3913985;30;20058;-62
2022/04/01 06:25:05;;;;;;;3.60;1.33;;;14.60;43.70;;;;;;3926898;30;20140;-64
2022/04/01 06:27:38;;;;;;;4.40;1.00;;;14.50;44.10;;;;;;3927490;30;20164;-64
2022/04/01 06:30:06;;;;;;;3.38;1.27;;;14.60;44.10;;;;;;3928847;30;20048;-65
2022/04/01 06:32:35;;;;;;;3.40;1.27;;;14.60;43.50;;;;;;3914638;30;20084;-64
2022/04/01 06:35:05;;;;;;;2.45;1.30;;;14.60;43.60;;;;;;3927058;30;20056;-63
2022/04/01 06:37:55;;;;;;;2.92;1.40;;;14.60;43.60;;;;;;3928238;30;20059;-64
2022/04/01 06:40:22;;;;;;;2.28;1.33;;;14.50;43.50;;;;;;3914264;30;20126;-64
2022/04/01 06:42:46;;;;;;;2.25;1.30;;;14.50;44.10;;;;;;3913917;30;20837;-64
2022/04/01 06:45:13;;;;;;;2.75;1.20;;;14.40;44.00;;;;;;3927980;30;20114;-64
2022/04/01 06:47:59;;;;;;;3.00;1.20;;;14.40;44.70;;;;;;3928290;30;20062;-64
2022/04/01 06:50:27;;;;;;;1.23;1.10;;;14.40;44.70;;;;;;3915005;30;20056;-64
2022/04/01 06:53:14;;;;;;;1.98;1.50;;;14.40;44.30;;;;;;3922806;30;20056;-65
2022/04/01 06:55:57;;;;;;;3.72;1.30;;;14.40;43.90;;;;;;3939023;30;20071;-64
2022/04/01 06:58:25;;;;;;;3.08;1.40;;;14.30;44.50;;;;;;3914640;30;20148;-64
2022/04/01 07:00:54;;;;;;;2.08;1.40;;;14.20;44.60;;;;;;3936193;30;20071;-64
2022/04/01 07:03:17;;;;;;;1.85;1.00;;;14.10;44.90;;;;;;3928110;30;20561;-64
2022/04/01 07:05:40;;;;;;;2.40;1.10;;;14.00;44.50;;;;;;3927593;30;20501;-64
2022/04/01 07:08:03;;;;;;;2.80;0.93;;;13.80;44.10;;;;;;3927704;30;20510;-64
2022/04/01 07:10:27;;;;;;;2.05;1.27;;;13.70;44.70;;;;;;3931563;30;20131;-65
2022/04/01 07:12:50;;;;;;;3.10;1.25;;;13.80;45.50;;;;;;3924843;30;20063;-64
2022/04/01 07:15:13;;;;;;;3.13;1.42;;;13.70;44.70;;;;;;3927558;30;20048;-64
2022/04/01 07:17:35;;;;;;;1.63;1.08;;;13.70;44.30;;;;;;3927383;30;20136;-64
2022/04/01 07:20:03;;;;;;;3.13;1.40;;;13.80;44.50;;;;;;3927715;30;20436;-65
2022/04/01 07:22:25;;;;;;;2.28;1.10;;;13.80;43.80;;;;;;3926512;30;20052;-64
2022/04/01 07:24:47;;;;;;;3.33;1.30;;;13.90;44.00;;;;;;3927098;30;20612;-64
2022/04/01 07:27:11;;;;;;;5.70;1.48;;;13.90;43.80;;;;;;3927133;30;20055;-64
2022/04/01 07:29:33;;;;;;;5.30;1.33;;;13.90;42.80;;;;;;3936374;30;20095;-65
2022/04/01 07:34:37;;;;;;;2.22;1.38;;;13.80;42.90;;;;;;3912814;30;20564;-65
2022/04/01 07:36:59;;;;;;;2.38;1.27;;;13.80;44.20;;;;;;3899686;30;20510;-65
2022/04/01 07:39:21;;;;;;;1.98;1.00;;;13.90;43.40;;;;;;3915928;30;20075;-65
2022/04/01 07:41:44;;;;;;;3.92;1.75;;;14.00;43.50;;;;;;3927588;30;20512;-64
2022/04/01 07:44:08;;;;;;;1.65;1.40;;;14.00;43.20;;;;;;3926651;30;20066;-64
2022/04/01 07:46:30;;;;;;;4.32;1.88;;;14.00;43.80;;;;;;3927987;30;20501;-64
2022/04/01 07:48:53;;;;;;;2.85;1.58;;;13.90;43.00;;;;;;3927922;30;20857;-64
2022/04/01 07:51:15;;;;;;;1.63;1.52;;;13.80;42.70;;;;;;3899495;30;20509;-64
2022/04/01 07:53:37;;;;;;;3.05;1.30;;;13.70;42.80;;;;;;3923506;30;20150;-64
2022/04/01 07:55:59;;;;;;;1.75;1.60;;;13.60;43.80;;;;;;3926864;30;20064;-64
2022/04/01 07:58:21;;;;;;;2.72;1.73;;;13.60;43.80;;;;;;3927125;30;20067;-64
2022/04/01 08:00:48;;;;;;;4.32;1.30;;;13.60;44.40;;;;;;3934831;30;20059;-64
2022/04/01 08:03:11;;;;;;;3.58;1.52;;;13.70;44.30;;;;;;3927015;30;20052;-64
2022/04/01 08:05:33;;;;;;;2.95;2.00;;;13.70;44.30;;;;;;3926939;30;20060;-63
2022/04/01 08:07:56;;;;;;;3.05;1.60;;;13.70;44.60;;;;;;3926821;30;20052;-66
2022/04/01 08:10:18;;;;;;;2.72;1.70;;;13.70;45.50;;;;;;3926554;30;20087;-64
2022/04/01 08:12:40;;;;;;;1.52;1.40;;;13.70;45.60;;;;;;3912478;30;20060;-64
2022/04/01 08:15:03;;;;;;;1.33;1.15;;;13.60;45.50;;;;;;3912418;30;20122;-64
2022/04/01 08:17:27;;;;;;;2.13;1.23;;;13.70;46.60;;;;;;3922318;30;20056;-64
2022/04/01 08:19:50;;;;;;;2.20;1.30;;;13.80;47.60;;;;;;3926097;30;20087;-64
2022/04/01 08:22:12;;;;;;;1.75;1.20;;;13.90;46.10;;;;;;3926976;30;20522;-64
2022/04/01 08:24:35;;;;;;;1.88;1.60;;;14.00;46.40;;;;;;3926244;30;20071;-64
2022/04/01 08:27:00;;;;;;;2.20;1.70;;;14.00;45.60;;;;;;3926766;30;20055;-64
2022/04/01 08:29:22;;;;;;;2.50;1.42;;;14.00;45.30;;;;;;3926966;30;20064;-64
2022/04/01 08:31:45;;;;;;;1.83;1.48;;;14.00;46.00;;;;;;3926246;30;20079;-64
2022/04/01 08:34:08;;;;;;;1.50;1.40;;;14.00;45.80;;;;;;3926389;30;20555;-65
2022/04/01 08:36:32;;;;;;;2.00;1.30;;;14.00;45.50;;;;;;3912036;30;20418;-64
2022/04/01 08:38:54;;;;;;;2.95;1.30;;;13.90;45.70;;;;;;3912853;30;20052;-64
2022/04/01 08:41:18;;;;;;;2.28;1.25;;;13.80;46.90;;;;;;3913765;30;20056;-64
2022/04/01 08:43:42;;;;;;;4.65;1.90;;;13.90;48.20;;;;;;3926850;30;20060;-65
2022/04/01 08:46:06;;;;;;;1.63;1.50;;;14.00;49.20;;;;;;3925965;30;20052;-64
2022/04/01 08:48:29;;;;;;;3.58;1.75;;;14.10;48.50;;;;;;3926741;30;20191;-60
2022/04/01 08:50:52;;;;;;;3.17;1.55;;;14.10;48.50;;;;;;3924503;30;20048;-64
2022/04/01 08:53:15;;;;;;;4.18;2.08;;;14.10;48.60;;;;;;3925076;30;20060;-64
2022/04/01 08:55:37;;;;;;;2.15;1.98;;;14.10;49.10;;;;;;3924093;30;20569;-64
2022/04/01 08:57:59;;;;;;;2.72;2.05;;;14.10;49.30;;;;;;3924268;30;20495;-64
2022/04/01 09:00:38;;;;;;;2.85;2.03;;;14.10;49.20;;;;;;3924210;30;20125;-64
2022/04/01 09:03:01;;;;;;;1.83;1.67;;;14.00;49.50;;;;;;3924266;30;20141;-64
2022/04/01 09:05:24;;;;;;;2.60;2.40;;;13.90;49.70;;;;;;3923563;30;20443;-64
2022/04/01 09:07:48;;;;;;;5.53;2.47;;;13.90;49.40;;;;;;3924464;30;20810;-64
2022/04/01 09:10:10;;;;;;;3.20;2.10;;;13.80;49.90;;;;;;3923938;30;20852;-65
2022/04/01 09:12:36;;;;;;;5.25;2.55;;;13.80;50.60;;;;;;3923292;30;20052;-64
2022/04/01 09:14:59;;;;;;;2.30;2.10;;;13.70;50.60;;;;;;3923482;30;20115;-64
2022/04/01 09:17:22;;;;;;;3.15;2.20;;;13.60;50.60;;;;;;3923818;30;20064;-64
2022/04/01 09:19:44;;;;;;;2.45;1.65;;;13.60;50.90;;;;;;3923831;30;20060;-65
2022/04/01 09:22:18;;;;;;;3.80;2.03;;;13.60;51.50;;;;;;3922921;30;20571;-64
2022/04/01 09:24:53;;;;;;;2.88;2.00;;;13.70;52.20;;;;;;3923504;30;20144;-64
2022/04/01 09:27:15;;;;;;;2.05;1.73;;;13.70;51.50;;;;;;3923759;30;20079;-65
2022/04/01 09:29:37;;;;;;;2.50;2.20;;;13.80;51.60;;;;;;3924310;30;20414;-64
2022/04/01 09:32:08;;;;;;;1.70;1.60;;;13.80;51.60;;;;;;3923949;30;20060;-64
2022/04/01 09:34:30;;;;;;;4.20;2.15;;;13.90;51.80;;;;;;3922167;30;20742;-65
2022/04/01 09:36:56;;;;;;;2.63;2.13;;;13.90;51.50;;;;;;3923080;30;20390;-64
2022/04/01 09:39:20;;;;;;;3.50;2.05;;;13.90;51.30;;;;;;3923436;30;20142;-65
2022/04/01 09:41:46;;;;;;;2.22;1.95;;;13.90;50.90;;;;;;3923583;30;20060;-65
2022/04/01 09:44:25;;;;;;;2.45;1.75;;;13.90;51.40;;;;;;3923431;30;20071;-65
2022/04/01 09:46:50;;;;;;;3.20;2.00;;;13.90;51.60;;;;;;3921529;30;20079;-64
2022/04/01 09:49:13;;;;;;;2.78;1.90;;;13.90;51.60;;;;;;3923064;30;20064;-64
2022/04/01 09:51:35;;;;;;;5.13;2.30;;;13.90;51.70;;;;;;3925566;30;20064;-64
2022/04/01 09:54:02;;;;;;;1.92;1.77;;;13.90;51.30;;;;;;3926111;30;20535;-64
2022/04/01 09:56:49;;;;;;;2.00;1.88;;;13.80;51.90;;;;;;3925510;30;20135;-65
2022/04/01 09:59:13;;;;;;;2.30;1.77;;;13.80;51.80;;;;;;3925682;30;20067;-65
2022/04/01 10:01:36;;;;;;;2.92;1.80;;;13.80;52.20;;;;;;3912578;30;20061;-65
2022/04/01 10:03:58;;;;;;;2.70;1.85;;;13.80;52.30;;;;;;3925107;30;20060;-64
2022/04/01 10:06:21;;;;;;;4.30;2.25;;;13.80;51.90;;;;;;3926188;30;20060;-64
2022/04/01 10:08:46;;;;;;;3.92;1.88;;;13.80;52.20;;;;;;3925828;30;20490;-64
2022/04/01 10:11:09;;;;;;;2.03;1.83;;;13.90;52.90;;;;;;3926812;30;20094;-64
2022/04/01 10:13:35;;;;;;;2.17;1.77;;;14.00;51.70;;;;;;3925904;30;20202;-64
2022/04/01 10:15:59;;;;;;;5.72;2.13;;;14.00;51.80;;;;;;3925042;30;20465;-64
2022/04/01 10:18:43;;;;;;;1.75;1.50;;;14.10;50.60;;;;;;3925925;30;20114;-63
2022/04/01 10:21:05;;;;;;;3.65;1.98;;;14.10;50.80;;;;;;3925872;30;20553;-64
2022/04/01 10:23:28;;;;;;;3.40;1.85;;;14.10;50.70;;;;;;3926043;30;20055;-64
2022/04/01 10:25:54;;;;;;;2.47;1.55;;;14.10;50.90;;;;;;3925841;30;20064;-64
2022/04/01 10:28:18;;;;;;;1.98;1.88;;;14.20;52.10;;;;;;3925752;30;20060;-64
2022/04/01 10:30:51;;;;;;;3.53;2.05;;;14.30;51.90;;;;;;3925673;30;20143;-64
2022/04/01 10:33:23;;;;;;;3.00;1.50;;;14.40;51.90;;;;;;3925648;30;20145;-64
2022/04/01 10:35:45;;;;;;;3.90;1.65;;;14.40;51.40;;;;;;3925770;30;20117;-64
2022/04/01 10:38:18;;;;;;;2.22;1.70;;;14.50;51.20;;;;;;3925203;30;20066;-64
2022/04/01 10:40:43;;;;;;;2.85;1.60;;;14.40;50.90;;;;;;3925072;30;20056;-64
2022/04/01 10:43:11;;;;;;;1.75;1.45;;;14.30;50.50;;;;;;3925351;30;20240;-64
2022/04/01 10:45:33;;;;;;;2.05;1.70;;;14.30;49.70;;;;;;3924863;30;20518;-64
2022/04/01 10:53:41;;;;;;;3.70;1.52;;;14.20;51.80;;;;;;3924807;30;20056;-64
2022/04/01 10:56:36;;;;;;;3.63;1.50;;;14.10;52.20;;;;;;3900435;30;20083;-65
2022/04/01 10:59:07;;;;;;;3.38;1.77;;;14.10;52.40;;;;;;3925132;30;20059;-64
2022/04/01 11:01:30;;;;;;;2.45;1.70;;;14.20;52.40;;;;;;3925418;30;20071;-64
2022/04/01 11:03:54;;;;;;;1.65;1.27;;;14.20;51.00;;;;;;3924802;30;20721;-64
2022/04/01 11:06:23;;;;;;;2.03;1.60;;;14.30;51.50;;;;;;3925065;30;20498;-62
2022/04/01 11:08:52;;;;;;;1.90;1.25;;;14.20;50.60;;;;;;3924599;30;20417;-64
2022/04/01 11:11:15;;;;;;;2.63;1.00;;;14.30;50.30;;;;;;3925687;30;20052;-64
2022/04/01 11:13:38;;;;;;;2.20;1.33;;;14.20;50.20;;;;;;3924004;30;20087;-64
2022/04/01 11:16:14;;;;;;;3.65;1.60;;;14.20;50.80;;;;;;3924715;30;20052;-64
2022/04/01 11:19:13;;;;;;;2.17;1.33;;;14.10;50.10;;;;;;3924114;30;20055;-64
2022/04/01 11:21:36;;;;;;;1.80;1.20;;;14.10;51.10;;;;;;3924038;30;20052;-64
2022/04/01 11:24:04;;;;;;;1.67;1.40;;;14.10;52.30;;;;;;3924709;30;20052;-60
2022/04/01 11:26:40;;;;;;;3.17;1.35;;;14.10;52.60;;;;;;3923940;30;20135;-66
2022/04/01 11:29:16;;;;;;;1.58;1.23;;;14.20;52.10;;;;;;3923474;30;20056;-66
2022/04/01 11:31:41;;;;;;;6.00;1.60;;;14.20;52.30;;;;;;3924389;30;20055;-66
2022/04/01 11:34:04;;;;;;;2.03;1.40;;;14.20;53.60;;;;;;3923947;30;20056;-64
2022/04/01 11:36:28;;;;;;;1.33;1.23;;;14.20;54.30;;;;;;3924640;30;20438;-63
2022/04/01 11:38:51;;;;;;;1.70;1.58;;;14.20;53.20;;;;;;3924342;30;20092;-63
2022/04/01 11:41:13;;;;;;;4.10;1.30;;;14.30;51.80;;;;;;3923768;30;20109;-64
2022/04/01 11:43:35;;;;;;;1.77;1.27;;;14.40;49.30;;;;;;3924569;30;20146;-64
2022/04/01 11:46:02;;;;;;;3.50;1.33;;;14.40;47.30;;;;;;3924476;30;20056;-64
2022/04/01 11:48:27;;;;;;;3.30;1.35;;;14.40;47.00;;;;;;3923596;30;20143;-63
2022/04/01 11:50:52;;;;;;;1.45;1.35;;;14.30;46.60;;;;;;3922997;30;20059;-61
2022/04/01 11:53:21;;;;;;;2.15;1.45;;;14.30;47.70;;;;;;3924174;30;20468;-63
2022/04/01 11:55:44;;;;;;;1.52;1.23;;;14.30;50.10;;;;;;3924606;30;20056;-60
2022/04/01 11:58:06;;;;;;;4.35;1.30;;;14.30;47.60;;;;;;3924467;30;20074;-61
2022/04/01 12:00:29;;;;;;;1.40;0.90;;;14.20;46.80;;;;;;3924494;30;20060;-63
2022/04/01 12:02:52;;;;;;;1.15;1.05;;;14.10;45.20;;;;;;3924860;30;20405;-62
2022/04/01 12:05:15;;;;;;;1.23;1.05;;;14.00;44.60;;;;;;3924176;30;20137;-61
2022/04/01 12:10:23;;;;;;;2.67;1.50;;;13.90;47.30;;;;;;3924151;30;20063;-63
2022/04/01 12:12:53;;;;;;;2.03;1.45;;;13.80;46.40;;;;;;3924755;30;20417;-62
2022/04/01 12:15:16;;;;;;;1.73;1.20;;;13.80;45.70;;;;;;3924205;30;20117;-62
2022/04/01 12:17:49;;;;;;;3.20;1.40;;;13.80;45.50;;;;;;3911643;30;20057;-62
2022/04/01 12:20:13;;;;;;;3.53;1.83;;;13.80;46.00;;;;;;3923435;30;20056;-62
2022/04/01 12:22:55;;;;;;;2.47;1.65;;;13.90;47.10;;;;;;3924258;30;20400;-62
2022/04/01 12:25:17;;;;;;;4.90;1.35;;;14.00;48.80;;;;;;3924112;30;20129;-62
2022/04/01 12:27:53;;;;;;;3.58;1.63;;;14.00;49.40;;;;;;3924192;30;20075;-62
2022/04/01 12:30:28;;;;;;;1.48;1.20;;;14.10;48.90;;;;;;3923779;30;20063;-62
2022/04/01 12:32:55;;;;;;;1.75;1.60;;;14.20;47.60;;;;;;3924112;30;20867;-65
2022/04/01 12:35:17;;;;;;;2.90;1.50;;;14.20;47.20;;;;;;3923901;30;20063;-65
2022/04/01 12:37:39;;;;;;;2.13;1.77;;;14.20;47.60;;;;;;3923517;30;20151;-64
2022/04/01 12:40:02;;;;;;;3.60;1.75;;;14.20;48.10;;;;;;3923665;30;20079;-63
2022/04/01 12:42:25;;;;;;;3.03;1.50;;;14.20;46.80;;;;;;3923930;30;20052;-65
2022/04/01 12:44:48;;;;;;;5.07;1.77;;;14.30;48.10;;;;;;3924140;30;20083;-66
2022/04/01 12:47:12;;;;;;;2.85;1.55;;;14.40;48.30;;;;;;3922917;30;20060;-66
2022/04/01 12:49:36;;;;;;;3.35;1.42;;;14.50;48.70;;;;;;3923827;30;20489;-67
2022/04/01 12:52:01;;;;;;;2.75;1.38;;;14.60;47.60;;;;;;3923225;30;20070;-67
2022/04/01 12:54:28;;;;;;;1.60;1.50;;;14.70;48.00;;;;;;3922400;30;20113;-67
2022/04/01 12:56:51;;;;;;;5.70;1.17;;;14.70;46.60;;;;;;3923649;30;20056;-67
2022/04/01 12:59:16;;;;;;;4.55;2.10;;;14.70;46.90;;;;;;3923699;30;20086;-67
2022/04/01 13:01:42;;;;;;;2.85;1.38;;;14.70;48.10;;;;;;3924251;30;20064;-65